createdAt,value
2023-02-28T00:00:23.462Z,38.10
2023-02-28T00:02:25.296Z,38.00
2023-02-28T00:04:27.087Z,38.10
2023-02-28T00:06:28.878Z,38.00
2023-02-28T00:08:30.643Z,38.20
2023-02-28T00:10:32.899Z,38.10
2023-02-28T00:12:35.559Z,38.10
2023-02-28T00:14:37.714Z,38.00
2023-02-28T00:16:39.475Z,38.10
2023-02-28T00:18:41.259Z,38.10
2023-02-28T00:20:43.009Z,38.00
2023-02-28T00:22:46.006Z,37.90
2023-02-28T00:24:47.700Z,38.20
2023-02-28T00:26:49.463Z,38.10
2023-02-28T00:28:52.723Z,38.00
2023-02-28T00:30:54.570Z,38.10
2023-02-28T00:32:56.290Z,38.00
2023-02-28T00:34:58.047Z,38.30
2023-02-28T00:36:59.794Z,38.20
2023-02-28T00:39:02.204Z,38.20
2023-02-28T00:41:04.032Z,38.00
2023-02-28T00:43:05.755Z,38.30
2023-02-28T00:45:08.350Z,38.20
2023-02-28T00:47:13.062Z,37.90
2023-02-28T00:49:15.008Z,38.00
2023-02-28T00:51:17.626Z,38.20
2023-02-28T00:53:19.358Z,38.10
2023-02-28T00:55:21.614Z,37.90
2023-02-28T00:57:23.680Z,37.90
2023-02-28T00:59:25.511Z,38.30
2023-02-28T01:01:27.688Z,38.20
2023-02-28T01:03:29.746Z,37.90
2023-02-28T01:05:31.531Z,37.80
2023-02-28T01:07:33.329Z,38.20
2023-02-28T01:09:35.138Z,38.00
2023-02-28T01:11:37.039Z,38.40
2023-02-28T01:13:38.823Z,37.40
2023-02-28T01:15:46.376Z,37.30
2023-02-28T01:17:48.140Z,37.20
2023-02-28T01:19:49.956Z,37.20
2023-02-28T01:21:51.708Z,37.20
2023-02-28T01:23:53.478Z,37.20
2023-02-28T01:25:55.378Z,37.30
2023-02-28T01:27:57.284Z,37.10
2023-02-28T01:29:59.042Z,37.20
2023-02-28T01:32:00.835Z,37.10
2023-02-28T01:34:02.934Z,37.10
2023-02-28T01:36:24.443Z,37.10
2023-02-28T01:38:26.345Z,37.00
2023-02-28T01:40:29.552Z,37.10
2023-02-28T01:42:31.407Z,37.10
2023-02-28T01:44:51.482Z,36.90
2023-02-28T01:46:53.342Z,37.00
2023-02-28T01:48:58.602Z,37.00
2023-02-28T01:51:05.135Z,37.00
2023-02-28T01:53:08.234Z,36.90
2023-02-28T01:55:11.750Z,36.90
2023-02-28T01:57:15.779Z,36.90
2023-02-28T01:59:23.133Z,36.80
2023-02-28T02:01:26.654Z,36.90
2023-02-28T02:03:29.294Z,37.00
2023-02-28T02:05:31.917Z,36.90
2023-02-28T02:07:36.128Z,36.80
2023-02-28T02:09:37.865Z,37.00
2023-02-28T02:11:41.553Z,36.80
2023-02-28T02:13:43.336Z,36.80
2023-02-28T02:15:47.634Z,36.80
2023-02-28T02:17:52.562Z,36.90
2023-02-28T02:20:17.265Z,36.80
2023-02-28T02:22:24.907Z,36.70
2023-02-28T02:24:45.445Z,36.60
2023-02-28T02:26:47.193Z,36.60
2023-02-28T02:29:07.629Z,36.60
2023-02-28T02:31:18.292Z,36.60
2023-02-28T02:33:32.415Z,36.70
2023-02-28T02:35:43.276Z,37.20
2023-02-28T02:37:48.121Z,36.50
2023-02-28T02:39:54.410Z,36.50
2023-02-28T02:41:58.890Z,36.60
2023-02-28T02:44:07.145Z,36.40
2023-02-28T02:46:13.569Z,36.50
2023-02-28T02:48:17.755Z,36.60
2023-02-28T02:50:25.395Z,36.60
2023-02-28T02:52:33.333Z,36.50
2023-02-28T02:54:37.318Z,36.40
2023-02-28T02:56:42.215Z,36.50
2023-02-28T02:58:44.831Z,36.40
2023-02-28T03:00:48.801Z,36.40
2023-02-28T03:02:53.605Z,36.50
2023-02-28T03:04:59.193Z,36.60
2023-02-28T03:07:00.989Z,36.40
2023-02-28T03:09:04.326Z,36.30
2023-02-28T03:11:07.814Z,36.40
2023-02-28T03:13:18.731Z,36.40
2023-02-28T03:15:24.154Z,36.30
2023-02-28T03:17:31.771Z,36.50
2023-02-28T03:19:48.858Z,36.40
2023-02-28T03:21:50.598Z,36.30
2023-02-28T03:24:03.045Z,36.30
2023-02-28T03:26:10.595Z,36.60
2023-02-28T03:28:30.980Z,36.40
2023-02-28T03:30:35.781Z,36.40
2023-02-28T03:32:40.829Z,36.60
2023-02-28T03:34:46.898Z,36.40
2023-02-28T03:36:50.580Z,36.30
2023-02-28T03:38:54.904Z,36.20
2023-02-28T03:40:59.971Z,36.30
2023-02-28T03:43:04.698Z,36.50
2023-02-28T03:45:16.986Z,36.60
2023-02-28T03:47:21.039Z,36.80
2023-02-28T03:49:28.176Z,36.30
2023-02-28T03:51:33.100Z,36.40
2023-02-28T03:53:38.054Z,36.30
2023-02-28T03:55:49.585Z,36.30
2023-02-28T03:58:14.018Z,36.30
2023-02-28T04:00:19.725Z,36.30
2023-02-28T04:02:21.526Z,36.40
2023-02-28T04:04:23.332Z,36.60
2023-02-28T04:06:25.437Z,36.40
2023-02-28T04:08:27.184Z,36.30
2023-02-28T04:10:28.988Z,36.50
2023-02-28T04:12:30.881Z,36.50
2023-02-28T04:14:32.647Z,37.00
2023-02-28T04:16:36.015Z,36.10
2023-02-28T04:18:37.942Z,36.40
2023-02-28T04:20:39.714Z,36.20
2023-02-28T04:22:41.511Z,36.10
2023-02-28T04:24:43.250Z,36.10
2023-02-28T04:26:46.122Z,36.30
2023-02-28T04:28:47.873Z,36.30
2023-02-28T04:30:55.052Z,35.90
2023-02-28T04:32:56.850Z,36.10
2023-02-28T04:34:58.607Z,36.50
2023-02-28T04:37:12.403Z,36.50
2023-02-28T04:39:15.712Z,36.20
2023-02-28T04:41:17.666Z,36.40
2023-02-28T04:43:19.553Z,36.20
2023-02-28T04:45:21.370Z,36.10
2023-02-28T04:47:23.162Z,36.20
2023-02-28T04:49:24.974Z,36.50
2023-02-28T04:51:26.985Z,36.70
2023-02-28T04:53:29.471Z,36.40
2023-02-28T04:55:31.192Z,36.10
2023-02-28T04:57:32.978Z,36.30
2023-02-28T04:59:34.786Z,36.30
2023-02-28T05:01:36.569Z,36.70
2023-02-28T05:03:38.318Z,36.80
2023-02-28T05:05:40.170Z,36.40
2023-02-28T05:07:41.928Z,36.10
2023-02-28T05:09:43.710Z,36.10
2023-02-28T05:11:45.475Z,36.30
2023-02-28T05:13:47.434Z,36.30
2023-02-28T05:15:49.278Z,35.80
2023-02-28T05:17:51.014Z,36.00
2023-02-28T05:19:52.844Z,36.10
2023-02-28T05:21:55.401Z,36.10
2023-02-28T05:23:58.437Z,35.80
2023-02-28T05:26:00.236Z,35.90
2023-02-28T05:28:01.983Z,35.80
2023-02-28T05:30:04.106Z,36.00
2023-02-28T05:32:06.018Z,35.90
2023-02-28T05:34:07.912Z,35.80
2023-02-28T05:36:09.728Z,36.00
2023-02-28T05:38:11.561Z,36.20
2023-02-28T05:40:13.451Z,36.00
2023-02-28T05:42:15.229Z,36.00
2023-02-28T05:44:17.027Z,36.30
2023-02-28T05:46:18.761Z,36.10
2023-02-28T05:48:20.589Z,35.90
2023-02-28T05:50:22.659Z,36.10
2023-02-28T05:52:24.490Z,35.80
2023-02-28T05:54:26.272Z,35.80
2023-02-28T05:56:28.110Z,35.80
2023-02-28T05:58:29.914Z,35.90
2023-02-28T06:00:31.660Z,36.10
2023-02-28T06:02:33.489Z,35.80
2023-02-28T06:04:35.245Z,35.90
2023-02-28T06:06:37.408Z,35.90
2023-02-28T06:08:39.172Z,35.90
2023-02-28T06:10:40.919Z,36.00
2023-02-28T06:12:42.753Z,35.70
2023-02-28T06:14:44.522Z,35.80
2023-02-28T06:16:46.398Z,35.80
2023-02-28T06:18:48.174Z,35.80
2023-02-28T06:20:53.917Z,35.80
2023-02-28T06:22:57.058Z,35.60
2023-02-28T06:24:58.818Z,35.70
2023-02-28T06:27:00.583Z,35.50
2023-02-28T06:29:02.442Z,35.60
2023-02-28T06:31:07.862Z,35.40
2023-02-28T06:33:09.678Z,35.80
2023-02-28T06:35:11.453Z,35.70
2023-02-28T06:37:13.208Z,35.50
2023-02-28T06:39:15.044Z,35.60
2023-02-28T06:41:16.787Z,35.70
2023-02-28T06:43:18.573Z,35.60
2023-02-28T06:45:20.446Z,35.60
2023-02-28T06:47:22.204Z,35.70
2023-02-28T06:49:23.939Z,35.80
2023-02-28T06:51:25.679Z,36.00
2023-02-28T06:53:27.457Z,35.70
2023-02-28T06:55:30.695Z,35.80
2023-02-28T06:57:33.281Z,35.70
2023-02-28T06:59:35.238Z,35.90
2023-02-28T07:01:37.061Z,35.70
2023-02-28T07:03:38.861Z,36.00
2023-02-28T07:05:40.571Z,36.40
2023-02-28T07:07:42.306Z,36.10
2023-02-28T07:09:44.157Z,35.80
2023-02-28T07:11:45.854Z,36.40
2023-02-28T07:13:47.637Z,35.80
2023-02-28T07:16:03.796Z,35.70
2023-02-28T07:18:05.632Z,36.10
2023-02-28T07:20:07.738Z,35.70
2023-02-28T07:22:09.565Z,35.80
2023-02-28T07:24:11.349Z,35.60
2023-02-28T07:26:14.461Z,36.30
2023-02-28T07:28:16.234Z,36.20
2023-02-28T07:30:18.121Z,36.10
2023-02-28T07:32:20.219Z,36.40
2023-02-28T07:34:22.160Z,36.30
2023-02-28T07:36:23.922Z,36.60
2023-02-28T07:38:25.677Z,36.50
2023-02-28T07:40:27.902Z,36.10
2023-02-28T07:42:29.616Z,36.60
2023-02-28T07:44:31.416Z,35.80
2023-02-28T07:46:33.520Z,36.40
2023-02-28T07:48:35.942Z,36.40
2023-02-28T07:50:37.862Z,36.30
2023-02-28T07:52:39.975Z,36.40
2023-02-28T07:54:41.731Z,36.40
2023-02-28T07:56:43.484Z,36.40
2023-02-28T07:58:45.214Z,35.80
2023-02-28T08:00:47.188Z,35.20
2023-02-28T08:02:48.964Z,35.70
2023-02-28T08:04:50.869Z,35.30
2023-02-28T08:06:52.644Z,35.30
2023-02-28T08:08:54.658Z,35.00
2023-02-28T08:10:57.396Z,35.10
2023-02-28T08:13:00.396Z,35.00
2023-02-28T08:15:02.154Z,35.20
2023-02-28T08:17:04.162Z,35.30
2023-02-28T08:19:06.063Z,35.00
2023-02-28T08:21:08.659Z,35.50
2023-02-28T08:23:10.452Z,35.30
2023-02-28T08:25:12.225Z,35.00
2023-02-28T08:27:14.228Z,35.20
2023-02-28T08:29:15.990Z,35.30
2023-02-28T08:31:18.003Z,33.50
2023-02-28T08:33:19.840Z,35.10
2023-02-28T08:35:21.903Z,34.80
2023-02-28T08:37:24.182Z,33.20
2023-02-28T08:39:26.061Z,33.30
2023-02-28T08:41:28.350Z,33.50
2023-02-28T08:43:30.276Z,32.90
2023-02-28T08:45:32.076Z,33.30
2023-02-28T08:47:33.808Z,33.70
2023-02-28T08:49:38.698Z,31.20
2023-02-28T08:51:40.608Z,30.90
2023-02-28T08:53:42.620Z,31.10
2023-02-28T08:55:44.361Z,31.20
2023-02-28T08:57:46.227Z,31.50
2023-02-28T08:59:48.126Z,31.40
2023-02-28T09:01:49.870Z,31.10
2023-02-28T09:03:52.125Z,30.90
2023-02-28T09:05:58.312Z,31.00
2023-02-28T09:08:00.048Z,31.20
2023-02-28T09:10:01.866Z,31.40
2023-02-28T09:12:03.708Z,31.20
2023-02-28T09:14:05.523Z,31.40
2023-02-28T09:16:08.888Z,31.10
2023-02-28T09:18:10.780Z,31.50
2023-02-28T09:20:12.982Z,31.60
2023-02-28T09:22:14.730Z,32.00
2023-02-28T09:24:16.545Z,31.80
2023-02-28T09:26:23.284Z,31.80
2023-02-28T09:28:25.069Z,32.10
2023-02-28T09:30:27.122Z,32.00
2023-02-28T09:32:28.899Z,32.20
2023-02-28T09:34:30.711Z,32.10
2023-02-28T09:36:43.466Z,32.10
2023-02-28T09:38:47.590Z,32.10
2023-02-28T09:40:51.506Z,32.40
2023-02-28T09:42:55.330Z,32.60
2023-02-28T09:44:57.606Z,33.10
2023-02-28T09:47:08.198Z,33.00
2023-02-28T09:49:14.866Z,33.00
2023-02-28T09:51:35.475Z,32.10
2023-02-28T09:53:38.170Z,32.80
2023-02-28T09:55:47.209Z,33.10
2023-02-28T09:57:50.684Z,33.20
2023-02-28T09:59:58.526Z,33.10
2023-02-28T10:02:18.642Z,32.80
2023-02-28T10:04:38.481Z,32.90
2023-02-28T10:06:47.233Z,32.80
2023-02-28T10:09:12.063Z,32.80
2023-02-28T10:11:16.356Z,32.50
2023-02-28T10:13:40.679Z,32.70
2023-02-28T10:15:42.826Z,33.10
2023-02-28T10:17:55.366Z,33.50
2023-02-28T10:20:18.466Z,33.30
2023-02-28T10:22:23.294Z,33.20
2023-02-28T10:24:36.228Z,33.30
2023-02-28T10:26:37.999Z,33.40
2023-02-28T10:28:40.206Z,33.10
2023-02-28T10:30:43.646Z,32.70
2023-02-28T10:32:52.436Z,32.80
2023-02-28T10:35:01.421Z,32.10
2023-02-28T10:37:04.126Z,32.80
2023-02-28T10:39:24.527Z,32.60
2023-02-28T10:41:29.427Z,32.50
2023-02-28T10:43:31.199Z,32.80
2023-02-28T10:45:34.171Z,32.70
2023-02-28T10:47:38.118Z,32.70
2023-02-28T10:49:47.636Z,32.90
2023-02-28T10:51:51.634Z,33.10
2023-02-28T10:54:01.357Z,33.10
2023-02-28T10:56:03.515Z,33.00
2023-02-28T10:58:19.457Z,33.20
2023-02-28T11:00:22.900Z,33.40
2023-02-28T11:04:41.598Z,33.60
2023-02-28T11:06:43.601Z,33.60
2023-02-28T11:08:46.716Z,33.50
2023-02-28T11:10:49.508Z,33.50
2023-02-28T11:12:55.302Z,33.70
2023-02-28T11:14:58.866Z,33.50
2023-02-28T11:17:04.005Z,33.50
2023-02-28T11:19:07.825Z,33.40
2023-02-28T11:21:10.781Z,33.60
2023-02-28T11:23:14.689Z,33.80
2023-02-28T11:25:19.279Z,33.70
2023-02-28T11:27:43.439Z,34.30
2023-02-28T11:29:48.193Z,34.00
2023-02-28T11:32:05.041Z,33.80
2023-02-28T11:34:23.754Z,33.60
2023-02-28T11:36:27.235Z,33.50
2023-02-28T11:38:29.027Z,33.70
2023-02-28T11:40:44.445Z,33.80
2023-02-28T11:42:49.192Z,33.70
2023-02-28T11:45:13.197Z,33.70
2023-02-28T11:47:21.068Z,33.60
2023-02-28T11:49:35.053Z,33.80
2023-02-28T11:51:43.060Z,33.80
2023-02-28T11:54:06.154Z,33.90
2023-02-28T11:56:18.065Z,33.90
2023-02-28T11:58:38.711Z,34.00
2023-02-28T12:00:55.543Z,34.20
2023-02-28T12:02:57.312Z,34.10
2023-02-28T12:05:18.367Z,34.10
2023-02-28T12:07:38.701Z,34.10
2023-02-28T12:09:46.622Z,34.10
2023-02-28T12:11:52.179Z,33.90
2023-02-28T12:13:53.846Z,34.40
2023-02-28T12:15:58.583Z,34.60
2023-02-28T12:18:12.279Z,34.90
2023-02-28T12:20:14.043Z,34.90
2023-02-28T12:22:25.017Z,34.80
2023-02-28T12:24:36.020Z,34.80
2023-02-28T12:26:40.161Z,34.50
2023-02-28T12:28:53.437Z,34.30
2023-02-28T12:33:11.531Z,34.10
2023-02-28T12:35:15.034Z,34.80
2023-02-28T12:37:29.054Z,35.00
2023-02-28T12:39:41.701Z,35.00
2023-02-28T12:41:55.115Z,35.20
2023-02-28T12:44:01.183Z,35.10
2023-02-28T12:46:06.782Z,35.00
2023-02-28T12:48:11.312Z,35.00
2023-02-28T12:50:13.416Z,34.80
2023-02-28T12:52:17.222Z,35.30
2023-02-28T12:54:31.152Z,34.70
2023-02-28T12:56:41.872Z,34.80
2023-02-28T12:58:45.836Z,34.60
2023-02-28T13:01:03.707Z,34.60
2023-02-28T13:03:24.540Z,34.40
2023-02-28T13:05:29.177Z,34.10
2023-02-28T13:07:57.396Z,34.00
2023-02-28T13:10:00.470Z,34.30
2023-02-28T13:12:02.320Z,34.40
2023-02-28T13:14:05.534Z,34.50
2023-02-28T13:16:08.878Z,34.80
2023-02-28T13:18:27.731Z,34.80
2023-02-28T13:20:37.455Z,34.40
2023-02-28T13:22:40.931Z,34.40
2023-02-28T13:24:45.094Z,34.30
2023-02-28T13:27:10.744Z,34.80
2023-02-28T13:29:15.482Z,34.60
2023-02-28T13:31:17.549Z,34.30
2023-02-28T13:33:25.576Z,34.20
2023-02-28T13:35:37.676Z,34.30
2023-02-28T13:37:43.439Z,34.40
2023-02-28T13:39:45.431Z,33.90
2023-02-28T13:41:47.998Z,33.90
2023-02-28T13:44:05.222Z,33.80
2023-02-28T13:46:14.295Z,34.00
2023-02-28T13:48:20.466Z,33.90
2023-02-28T13:50:36.757Z,34.50
2023-02-28T13:52:48.647Z,34.20
2023-02-28T13:54:57.749Z,34.40
2023-02-28T13:56:59.983Z,34.40
2023-02-28T13:59:07.393Z,34.20
2023-02-28T14:01:30.688Z,34.00
2023-02-28T14:03:41.992Z,34.10
2023-02-28T14:05:44.222Z,34.30
2023-02-28T14:07:48.358Z,34.40
2023-02-28T14:09:56.904Z,34.80
2023-02-28T14:12:19.048Z,34.30
2023-02-28T14:14:35.991Z,34.20
2023-02-28T14:16:37.764Z,34.10
2023-02-28T14:18:42.343Z,34.40
2023-02-28T14:20:44.855Z,34.40
2023-02-28T14:22:52.846Z,34.60
2023-02-28T14:25:00.677Z,34.30
2023-02-28T14:27:02.386Z,34.50
2023-02-28T14:29:24.456Z,34.40
2023-02-28T14:31:29.665Z,34.10
2023-02-28T14:33:34.474Z,34.10
2023-02-28T14:35:46.795Z,33.90
2023-02-28T14:37:49.220Z,34.00
2023-02-28T14:39:51.234Z,33.90
2023-02-28T14:41:53.045Z,34.20
2023-02-28T14:44:02.267Z,34.10
2023-02-28T14:46:07.133Z,34.50
2023-02-28T14:48:11.713Z,34.40
2023-02-28T14:50:23.987Z,34.50
2023-02-28T14:52:27.126Z,34.80
2023-02-28T14:54:29.746Z,34.70
2023-02-28T14:56:35.196Z,34.50
2023-02-28T14:58:37.098Z,34.80
2023-02-28T15:00:47.850Z,34.50
2023-02-28T15:02:49.806Z,34.10
2023-02-28T15:04:55.984Z,34.00
2023-02-28T15:07:26.992Z,33.80
2023-02-28T15:09:29.072Z,33.90
2023-02-28T15:11:31.131Z,34.10
2023-02-28T15:13:35.939Z,34.10
2023-02-28T15:15:51.771Z,34.00
2023-02-28T15:18:03.820Z,34.00
2023-02-28T15:20:05.917Z,34.00
2023-02-28T15:22:13.142Z,34.10
2023-02-28T15:24:18.745Z,34.40
2023-02-28T15:26:21.947Z,34.40
2023-02-28T15:28:24.092Z,34.30
2023-02-28T15:30:28.233Z,34.30
2023-02-28T15:32:31.636Z,34.30
2023-02-28T15:34:44.580Z,34.40
2023-02-28T15:36:46.615Z,34.50
2023-02-28T15:38:51.835Z,34.50
2023-02-28T15:40:58.112Z,34.40
2023-02-28T15:43:07.905Z,34.40
2023-02-28T15:45:27.484Z,34.60
2023-02-28T15:47:30.231Z,34.80
2023-02-28T15:49:47.190Z,34.70
2023-02-28T15:51:50.881Z,34.70
2023-02-28T15:53:52.666Z,34.40
2023-02-28T15:55:56.075Z,34.00
2023-02-28T15:58:00.551Z,34.00
2023-02-28T16:00:03.919Z,34.10
2023-02-28T16:02:18.081Z,34.50
2023-02-28T16:04:20.523Z,34.40
2023-02-28T16:06:22.321Z,35.10
2023-02-28T16:08:24.124Z,35.20
2023-02-28T16:10:26.768Z,34.40
2023-02-28T16:12:30.100Z,34.40
2023-02-28T16:14:32.226Z,34.00
2023-02-28T16:16:34.272Z,34.10
2023-02-28T16:18:36.022Z,34.00
2023-02-28T16:20:37.860Z,35.20
2023-02-28T16:22:39.626Z,34.50
2023-02-28T16:24:41.409Z,34.50
2023-02-28T16:26:46.616Z,34.50
2023-02-28T16:28:48.403Z,34.80
2023-02-28T16:30:52.538Z,34.70
2023-02-28T16:32:56.062Z,35.10
2023-02-28T16:34:57.900Z,34.90
2023-02-28T16:36:59.662Z,35.00
2023-02-28T16:39:01.439Z,35.20
2023-02-28T16:41:03.290Z,34.90
2023-02-28T16:43:17.161Z,34.90
2023-02-28T16:45:20.836Z,35.00
2023-02-28T16:47:22.737Z,35.00
2023-02-28T16:49:24.505Z,35.00
2023-02-28T16:51:27.566Z,35.40
2023-02-28T16:53:29.615Z,35.20
2023-02-28T16:55:31.421Z,35.40
2023-02-28T16:57:33.994Z,35.30
2023-02-28T16:59:35.921Z,35.40
2023-02-28T17:01:37.896Z,34.00
2023-02-28T17:03:39.722Z,32.80
2023-02-28T17:05:41.539Z,33.10
2023-02-28T17:07:43.812Z,33.30
2023-02-28T17:09:46.823Z,33.20
2023-02-28T17:11:48.947Z,32.70
2023-02-28T17:13:50.695Z,32.70
2023-02-28T17:15:52.616Z,32.90
2023-02-28T17:17:54.497Z,32.20
2023-02-28T17:19:56.383Z,32.00
2023-02-28T17:21:58.146Z,32.00
2023-02-28T17:24:00.196Z,32.30
2023-02-28T17:26:01.976Z,32.30
2023-02-28T17:28:03.850Z,32.30
2023-02-28T17:30:15.246Z,32.20
2023-02-28T17:32:18.120Z,32.30
2023-02-28T17:34:20.449Z,32.40
2023-02-28T17:36:23.795Z,32.30
2023-02-28T17:40:51.128Z,32.60
2023-02-28T17:42:53.142Z,32.60
2023-02-28T17:44:55.166Z,32.90
2023-02-28T17:46:56.881Z,32.80
2023-02-28T17:48:58.726Z,32.80
2023-02-28T17:51:00.510Z,32.80
2023-02-28T17:53:02.300Z,32.90
2023-02-28T17:55:05.238Z,32.90
2023-02-28T17:57:06.996Z,33.10
2023-02-28T17:59:09.684Z,33.10
2023-02-28T18:01:11.477Z,33.10
2023-02-28T18:03:13.201Z,33.20
2023-02-28T18:05:15.015Z,33.30
2023-02-28T18:07:16.767Z,33.30
2023-02-28T18:09:19.578Z,33.30
2023-02-28T18:11:22.094Z,33.30
2023-02-28T18:13:23.872Z,33.30
2023-02-28T18:15:25.817Z,33.30
2023-02-28T18:17:27.532Z,33.30
2023-02-28T18:19:29.271Z,33.40
2023-02-28T18:21:31.395Z,33.30
2023-02-28T18:23:33.481Z,33.40
2023-02-28T18:25:35.227Z,33.80
2023-02-28T18:27:37.298Z,33.60
2023-02-28T18:29:40.736Z,33.60
2023-02-28T18:31:43.258Z,33.60
2023-02-28T18:33:47.945Z,33.50
2023-02-28T18:35:55.286Z,33.50
2023-02-28T18:37:57.118Z,33.60
2023-02-28T18:39:58.882Z,33.50
2023-02-28T18:42:00.685Z,33.50
2023-02-28T18:44:10.414Z,33.60
2023-02-28T18:46:17.216Z,33.70
2023-02-28T18:48:19.495Z,33.70
2023-02-28T18:50:21.221Z,33.70
2023-02-28T18:52:23.063Z,33.80
2023-02-28T18:54:24.837Z,33.80
2023-02-28T18:56:26.892Z,33.80
2023-02-28T18:58:28.986Z,33.80
2023-02-28T19:00:30.918Z,33.90
2023-02-28T19:02:32.776Z,33.90
2023-02-28T19:04:34.490Z,34.00
2023-02-28T19:06:36.272Z,34.00
2023-02-28T19:08:38.128Z,34.00
2023-02-28T19:10:39.923Z,34.00
2023-02-28T19:12:41.797Z,34.10
2023-02-28T19:14:43.551Z,34.10
2023-02-28T19:16:45.385Z,34.10
2023-02-28T19:18:47.251Z,34.10
2023-02-28T19:20:48.965Z,34.10
2023-02-28T19:22:50.738Z,34.20
2023-02-28T19:24:52.667Z,34.10
2023-02-28T19:26:54.379Z,34.10
2023-02-28T19:28:56.180Z,34.20
2023-02-28T19:30:57.943Z,34.20
2023-02-28T19:32:59.695Z,34.20
2023-02-28T19:35:02.340Z,34.30
2023-02-28T19:37:04.128Z,34.10
2023-02-28T19:39:05.928Z,34.20
2023-02-28T19:41:09.224Z,34.30
2023-02-28T19:43:11.251Z,34.30
2023-02-28T19:45:13.041Z,34.30
2023-02-28T19:47:14.966Z,34.30
2023-02-28T19:49:16.719Z,34.30
2023-02-28T19:53:25.372Z,34.40
2023-02-28T19:55:30.384Z,34.40
2023-02-28T19:57:32.169Z,34.40
2023-02-28T19:59:39.416Z,34.40
2023-02-28T20:01:42.007Z,34.50
2023-02-28T20:03:46.828Z,34.50
2023-02-28T20:05:58.697Z,34.40
2023-02-28T20:08:00.497Z,34.50
2023-02-28T20:10:02.259Z,34.40
2023-02-28T20:12:07.121Z,34.40
2023-02-28T20:14:11.652Z,34.50
2023-02-28T20:16:13.824Z,35.00
2023-02-28T20:18:15.651Z,34.50
2023-02-28T20:20:17.448Z,34.50
2023-02-28T20:22:19.225Z,34.40
2023-02-28T20:24:21.029Z,34.50
2023-02-28T20:26:22.822Z,34.50
2023-02-28T20:28:24.660Z,34.50
2023-02-28T20:30:26.502Z,34.50
2023-02-28T20:32:28.287Z,34.50
2023-02-28T20:34:30.055Z,35.00
2023-02-28T20:36:32.440Z,34.50
2023-02-28T20:38:34.492Z,34.50
2023-02-28T20:40:36.440Z,34.60
2023-02-28T20:42:38.307Z,34.50
2023-02-28T20:44:40.035Z,34.50
2023-02-28T20:46:41.911Z,34.50
2023-02-28T20:48:43.670Z,34.60
2023-02-28T20:50:49.551Z,34.50
2023-02-28T20:52:51.334Z,34.50
2023-02-28T20:54:53.097Z,34.50
2023-02-28T20:56:54.863Z,34.50
2023-02-28T20:58:56.685Z,34.70
2023-02-28T21:01:01.234Z,34.60
2023-02-28T21:03:03.070Z,34.60
2023-02-28T21:05:05.157Z,34.60
2023-02-28T21:07:06.947Z,34.60
2023-02-28T21:09:09.514Z,34.70
2023-02-28T21:11:16.549Z,34.70
2023-02-28T21:13:18.366Z,34.60
2023-02-28T21:15:20.088Z,34.60
2023-02-28T21:17:22.115Z,34.60
2023-02-28T21:19:23.874Z,34.70
2023-02-28T21:21:25.800Z,34.60
2023-02-28T21:23:27.562Z,34.60
2023-02-28T21:25:29.296Z,35.20
2023-02-28T21:27:31.114Z,34.50
2023-02-28T21:29:32.965Z,34.70
2023-02-28T21:31:35.532Z,34.70
2023-02-28T21:33:37.694Z,34.70
2023-02-28T21:35:39.553Z,34.60
2023-02-28T21:37:41.325Z,34.70
2023-02-28T21:39:43.195Z,34.70
2023-02-28T21:41:45.227Z,34.70
2023-02-28T21:43:47.350Z,34.70
2023-02-28T21:45:49.118Z,34.70
2023-02-28T21:47:50.938Z,34.80
2023-02-28T21:49:52.678Z,34.80
2023-02-28T21:51:54.620Z,34.70
2023-02-28T21:53:59.309Z,34.80
2023-02-28T21:56:01.874Z,34.70
2023-02-28T21:58:03.695Z,34.70
2023-02-28T22:00:05.992Z,34.70
2023-02-28T22:02:13.891Z,34.70
2023-02-28T22:04:16.405Z,34.70
2023-02-28T22:06:22.614Z,34.70
2023-02-28T22:08:24.415Z,34.70
2023-02-28T22:10:26.283Z,34.70
2023-02-28T22:12:29.715Z,34.70
2023-02-28T22:14:31.503Z,34.70
2023-02-28T22:16:49.559Z,34.80
2023-02-28T22:18:53.108Z,34.90
2023-02-28T22:20:55.087Z,34.80
2023-02-28T22:22:56.867Z,34.80
2023-02-28T22:24:58.718Z,34.70
2023-02-28T22:27:00.539Z,34.70
2023-02-28T22:29:02.355Z,34.80
2023-02-28T22:31:17.875Z,34.80
2023-02-28T22:33:19.757Z,34.90
2023-02-28T22:35:21.624Z,34.80
2023-02-28T22:37:23.398Z,34.80
2023-02-28T22:39:25.150Z,34.80
2023-02-28T22:41:27.282Z,34.90
2023-02-28T22:43:28.992Z,34.80
2023-02-28T22:45:30.854Z,34.80
2023-02-28T22:47:32.595Z,34.80
2023-02-28T22:49:34.308Z,34.90
2023-02-28T22:51:36.204Z,34.90
2023-02-28T22:53:38.242Z,34.90
2023-02-28T22:55:40.015Z,34.90
2023-02-28T22:57:41.776Z,34.90
2023-02-28T22:59:43.639Z,34.90
2023-02-28T23:01:45.521Z,34.90
2023-02-28T23:03:47.331Z,34.90
2023-02-28T23:05:49.055Z,35.00
2023-02-28T23:07:50.877Z,34.80
2023-02-28T23:09:52.637Z,35.00
2023-02-28T23:11:54.461Z,35.00
2023-02-28T23:13:56.702Z,35.00
2023-02-28T23:15:58.419Z,34.80
2023-02-28T23:18:00.255Z,34.90
2023-02-28T23:20:02.102Z,34.90
2023-02-28T23:22:03.930Z,35.00
2023-02-28T23:24:08.122Z,35.00
2023-02-28T23:26:09.866Z,34.90
2023-02-28T23:28:11.613Z,35.00
2023-02-28T23:30:14.246Z,34.90
2023-02-28T23:32:16.056Z,35.00
2023-02-28T23:34:18.468Z,34.90
2023-02-28T23:36:20.286Z,35.00
2023-02-28T23:38:22.013Z,34.90
2023-02-28T23:40:23.851Z,34.90
2023-02-28T23:42:25.588Z,35.00
2023-02-28T23:44:27.534Z,35.10
2023-02-28T23:46:29.610Z,35.00
2023-02-28T23:48:31.538Z,35.00
2023-02-28T23:50:33.319Z,35.00
2023-02-28T23:52:35.102Z,35.00
2023-02-28T23:54:36.976Z,35.00
2023-02-28T23:56:38.795Z,35.00
2023-02-28T23:58:41.123Z,34.90
